createdAt,value
2023-11-17T00:00:07.533Z,105.88
2023-11-17T00:02:34.189Z,77.47
2023-11-17T00:05:01.412Z,30.33
2023-11-17T00:07:29.493Z,19.48
2023-11-17T00:09:57.811Z,13.05
2023-11-17T00:12:25.204Z,12.35
2023-11-17T00:14:52.166Z,12.43
2023-11-17T00:17:18.987Z,9.88
2023-11-17T00:19:47.197Z,9.75
2023-11-17T00:24:42.326Z,9.32
2023-11-17T00:27:11.342Z,8.50
2023-11-17T00:29:38.918Z,10.57
2023-11-17T00:32:06.491Z,12.15
2023-11-17T00:34:33.235Z,9.85
2023-11-17T00:37:02.934Z,10.98
2023-11-17T00:39:30.015Z,9.02
2023-11-17T00:41:59.784Z,6.88
2023-11-17T00:44:26.391Z,6.97
2023-11-17T00:46:55.013Z,7.65
2023-11-17T00:49:21.903Z,8.18
2023-11-17T00:51:49.475Z,9.43
2023-11-17T00:54:17.247Z,7.40
2023-11-17T00:56:43.873Z,10.60
2023-11-17T00:59:13.291Z,11.15
2023-11-17T01:01:41.241Z,8.30
2023-11-17T01:04:08.135Z,10.38
2023-11-17T01:06:34.849Z,9.60
2023-11-17T01:09:01.872Z,9.98
2023-11-17T01:11:28.486Z,8.50
2023-11-17T01:13:55.350Z,8.40
2023-11-17T01:16:22.776Z,8.30
2023-11-17T01:18:49.596Z,13.50
2023-11-17T01:21:17.083Z,15.10
2023-11-17T01:23:43.835Z,11.77
2023-11-17T01:26:10.486Z,16.10
2023-11-17T01:28:37.125Z,13.20
2023-11-17T01:31:05.591Z,11.70
2023-11-17T01:33:32.368Z,15.85
2023-11-17T01:35:59.854Z,15.75
2023-11-17T01:38:27.492Z,14.77
2023-11-17T01:40:58.030Z,13.57
2023-11-17T01:43:26.213Z,13.52
2023-11-17T01:45:53.841Z,13.65
2023-11-17T01:48:21.369Z,12.95
2023-11-17T01:50:48.253Z,14.27
2023-11-17T01:53:14.932Z,17.90
2023-11-17T01:55:41.543Z,16.90
2023-11-17T02:00:35.863Z,16.58
2023-11-17T02:03:02.722Z,16.08
2023-11-17T02:05:29.515Z,18.55
2023-11-17T02:08:28.305Z,16.45
2023-11-17T02:11:13.150Z,21.00
2023-11-17T02:13:41.568Z,19.92
2023-11-17T02:18:41.724Z,19.10
2023-11-17T02:21:08.690Z,16.95
2023-11-17T02:23:38.156Z,17.70
2023-11-17T02:26:23.734Z,16.55
2023-11-17T02:29:00.353Z,21.40
2023-11-17T02:31:33.663Z,17.42
2023-11-17T02:34:07.242Z,19.35
2023-11-17T02:36:34.414Z,17.40
2023-11-17T02:39:16.263Z,22.63
2023-11-17T02:41:49.948Z,16.52
2023-11-17T02:44:17.095Z,19.20
2023-11-17T02:46:46.038Z,21.65
2023-11-17T02:49:23.846Z,20.40
2023-11-17T02:51:53.320Z,21.05
2023-11-17T02:54:25.513Z,22.02
2023-11-17T02:56:52.687Z,19.45
2023-11-17T02:59:20.231Z,26.17
2023-11-17T03:01:46.850Z,25.63
2023-11-17T03:04:15.305Z,25.70
2023-11-17T03:06:47.008Z,20.25
2023-11-17T03:09:16.145Z,22.67
2023-11-17T03:11:43.758Z,21.08
2023-11-17T03:14:10.554Z,24.52
2023-11-17T03:16:40.723Z,23.65
2023-11-17T03:19:11.836Z,23.40
2023-11-17T03:21:42.522Z,28.33
2023-11-17T03:24:16.051Z,27.77
2023-11-17T03:26:44.641Z,28.60
2023-11-17T03:29:16.175Z,25.95
2023-11-17T03:31:49.859Z,24.67
2023-11-17T03:34:24.653Z,28.10
2023-11-17T03:36:58.452Z,29.02
2023-11-17T03:39:26.030Z,30.35
2023-11-17T03:41:53.536Z,24.40
2023-11-17T03:44:22.677Z,29.03
2023-11-17T03:46:52.229Z,24.48
2023-11-17T03:49:21.800Z,25.38
2023-11-17T03:51:52.093Z,30.42
2023-11-17T03:54:22.681Z,30.27
2023-11-17T03:56:54.053Z,28.65
2023-11-17T03:59:23.476Z,27.30
2023-11-17T04:01:53.637Z,32.60
2023-11-17T04:04:20.591Z,33.70
2023-11-17T04:06:51.455Z,28.85
2023-11-17T04:09:22.246Z,27.08
2023-11-17T04:11:50.146Z,36.20
2023-11-17T04:14:17.235Z,30.50
2023-11-17T04:16:44.150Z,28.70
2023-11-17T04:19:10.936Z,27.67
2023-11-17T04:21:37.582Z,29.30
2023-11-17T04:24:04.583Z,28.40
2023-11-17T04:26:31.175Z,24.67
2023-11-17T04:28:57.761Z,23.70
2023-11-17T04:31:25.045Z,24.85
2023-11-17T04:33:51.780Z,40.55
2023-11-17T04:36:18.586Z,34.03
2023-11-17T04:38:45.354Z,29.73
2023-11-17T04:41:14.388Z,29.45
2023-11-17T04:43:40.996Z,26.75
2023-11-17T04:46:08.151Z,28.15
2023-11-17T04:48:35.736Z,29.35
2023-11-17T04:51:02.433Z,28.47
2023-11-17T04:53:29.156Z,28.55
2023-11-17T04:55:55.916Z,29.80
2023-11-17T04:58:22.544Z,30.30
2023-11-17T05:00:49.256Z,26.35
2023-11-17T05:03:19.498Z,24.65
2023-11-17T05:05:47.162Z,29.70
2023-11-17T05:08:17.447Z,25.38
2023-11-17T05:10:44.990Z,24.30
2023-11-17T05:13:12.704Z,25.15
2023-11-17T05:15:41.606Z,23.50
2023-11-17T05:18:08.334Z,31.20
2023-11-17T05:20:35.001Z,25.98
2023-11-17T05:23:02.158Z,22.80
2023-11-17T05:25:31.692Z,28.10
2023-11-17T05:27:58.557Z,27.77
2023-11-17T05:30:25.307Z,26.52
2023-11-17T05:32:51.928Z,28.73
2023-11-17T05:35:19.377Z,24.95
2023-11-17T05:37:46.081Z,30.97
2023-11-17T05:40:12.835Z,25.20
2023-11-17T05:42:39.739Z,29.23
2023-11-17T05:45:07.972Z,28.20
2023-11-17T05:47:34.775Z,28.63
2023-11-17T05:50:02.651Z,28.27
2023-11-17T05:52:29.607Z,28.02
2023-11-17T05:54:56.379Z,26.05
2023-11-17T05:57:23.032Z,34.10
2023-11-17T05:59:55.498Z,25.55
2023-11-17T06:02:22.555Z,26.88
2023-11-17T06:04:49.643Z,23.42
2023-11-17T06:07:17.064Z,27.83
2023-11-17T06:09:44.713Z,25.65
2023-11-17T06:12:11.482Z,22.00
2023-11-17T06:14:38.329Z,24.80
2023-11-17T06:17:05.839Z,25.17
2023-11-17T06:19:34.505Z,25.50
2023-11-17T06:22:01.290Z,25.73
2023-11-17T06:24:28.114Z,23.45
2023-11-17T06:26:55.754Z,23.70
2023-11-17T06:29:26.034Z,27.38
2023-11-17T06:31:53.197Z,23.95
2023-11-17T06:34:20.320Z,24.98
2023-11-17T06:36:47.464Z,24.92
2023-11-17T06:39:19.714Z,25.25
2023-11-17T06:41:50.670Z,27.52
2023-11-17T06:44:18.538Z,23.58
2023-11-17T06:46:49.618Z,24.90
2023-11-17T06:49:19.447Z,24.17
2023-11-17T06:51:50.844Z,25.88
2023-11-17T06:54:19.207Z,22.83
2023-11-17T06:59:17.316Z,22.85
2023-11-17T07:01:44.756Z,22.20
2023-11-17T07:04:14.698Z,24.30
2023-11-17T07:06:42.128Z,25.17
2023-11-17T07:09:15.699Z,25.20
2023-11-17T07:11:43.811Z,25.00
2023-11-17T07:14:10.427Z,24.42
2023-11-17T07:16:43.865Z,24.33
2023-11-17T07:19:18.037Z,24.42
2023-11-17T07:21:50.898Z,22.92
2023-11-17T07:24:19.482Z,26.17
2023-11-17T07:26:48.817Z,21.20
2023-11-17T07:29:17.169Z,20.23
2023-11-17T07:34:19.874Z,17.23
2023-11-17T07:36:48.809Z,22.83
2023-11-17T07:39:16.322Z,20.42
2023-11-17T07:41:43.920Z,22.83
2023-11-17T07:44:10.646Z,19.90
2023-11-17T07:46:37.469Z,26.13
2023-11-17T07:49:07.227Z,24.40
2023-11-17T07:51:36.790Z,23.20
2023-11-17T07:54:05.225Z,25.13
2023-11-17T07:59:00.563Z,36.28
2023-11-17T08:01:27.395Z,27.77
2023-11-17T08:03:54.854Z,20.33
2023-11-17T08:06:22.101Z,20.50
2023-11-17T08:08:49.370Z,17.83
2023-11-17T08:11:16.978Z,19.05
2023-11-17T08:13:43.784Z,14.93
2023-11-17T08:16:11.521Z,17.30
2023-11-17T08:18:39.412Z,16.50
2023-11-17T08:21:07.755Z,17.00
2023-11-17T08:23:34.993Z,16.45
2023-11-17T08:26:02.221Z,17.88
2023-11-17T08:28:29.822Z,12.45
2023-11-17T08:30:58.903Z,12.45
2023-11-17T08:33:26.014Z,11.43
2023-11-17T08:35:53.586Z,14.88
2023-11-17T08:38:22.178Z,12.32
2023-11-17T08:40:51.880Z,10.63
2023-11-17T08:43:21.410Z,14.73
2023-11-17T08:45:52.576Z,16.50
2023-11-17T08:48:19.660Z,13.73
2023-11-17T08:50:46.764Z,13.02
2023-11-17T08:53:14.541Z,12.80
2023-11-17T08:55:45.237Z,15.25
2023-11-17T08:58:12.983Z,18.95
2023-11-17T09:00:42.153Z,11.55
2023-11-17T09:03:09.046Z,16.42
2023-11-17T09:05:35.741Z,14.90
2023-11-17T09:08:02.470Z,12.50
2023-11-17T09:10:29.207Z,14.45
2023-11-17T09:12:55.850Z,12.48
2023-11-17T09:15:26.249Z,14.45
2023-11-17T09:17:54.326Z,14.55
2023-11-17T09:20:23.064Z,15.15
2023-11-17T09:22:51.815Z,16.45
2023-11-17T09:25:19.968Z,12.50
2023-11-17T09:27:52.335Z,15.65
2023-11-17T09:30:19.024Z,11.88
2023-11-17T09:32:51.509Z,14.45
2023-11-17T09:35:18.520Z,16.52
2023-11-17T09:38:02.501Z,14.98
2023-11-17T09:40:36.569Z,13.95
2023-11-17T09:43:20.250Z,13.68
2023-11-17T09:45:47.121Z,17.65
2023-11-17T09:48:14.973Z,25.77
2023-11-17T09:50:42.843Z,30.92
2023-11-17T09:53:13.329Z,23.25
2023-11-17T09:55:43.737Z,26.85
2023-11-17T09:58:11.227Z,16.90
2023-11-17T10:00:38.662Z,18.25
2023-11-17T10:03:06.682Z,17.88
2023-11-17T10:05:34.649Z,17.10
2023-11-17T10:08:08.718Z,15.65
2023-11-17T10:10:37.605Z,15.32
2023-11-17T10:13:12.951Z,18.55
2023-11-17T10:15:47.851Z,15.63
2023-11-17T10:18:25.727Z,15.82
2023-11-17T10:20:52.769Z,17.13
2023-11-17T10:23:20.926Z,14.80
2023-11-17T10:25:55.040Z,18.02
2023-11-17T10:28:22.552Z,17.77
2023-11-17T10:30:51.842Z,16.95
2023-11-17T10:33:30.813Z,18.83
2023-11-17T10:36:17.156Z,18.33
2023-11-17T10:38:48.723Z,29.02
2023-11-17T10:41:36.707Z,17.95
2023-11-17T10:44:05.008Z,16.58
2023-11-17T10:46:48.699Z,16.90
2023-11-17T10:49:17.775Z,13.30
2023-11-17T10:51:48.754Z,18.05
2023-11-17T10:54:16.074Z,17.20
2023-11-17T10:56:45.495Z,17.75
2023-11-17T10:59:22.633Z,13.27
2023-11-17T11:01:51.587Z,10.95
2023-11-17T11:04:27.517Z,15.25
2023-11-17T11:06:58.624Z,12.95
2023-11-17T11:09:32.181Z,10.25
2023-11-17T11:11:58.934Z,10.82
2023-11-17T11:14:28.316Z,8.50
2023-11-17T11:16:56.169Z,9.70
2023-11-17T11:19:26.587Z,10.73
2023-11-17T11:22:02.513Z,11.63
2023-11-17T11:24:38.636Z,10.70
2023-11-17T11:27:07.709Z,9.20
2023-11-17T11:29:40.545Z,8.63
2023-11-17T11:32:08.285Z,8.13
2023-11-17T11:34:36.332Z,11.87
2023-11-17T11:37:06.968Z,8.63
2023-11-17T11:39:33.738Z,7.65
2023-11-17T11:42:01.816Z,12.23
2023-11-17T11:44:28.726Z,7.38
2023-11-17T11:46:57.256Z,10.05
2023-11-17T11:52:01.939Z,9.05
2023-11-17T11:54:28.584Z,7.78
2023-11-17T11:56:58.539Z,8.98
2023-11-17T11:59:25.422Z,8.15
2023-11-17T12:01:53.315Z,6.70
2023-11-17T12:04:22.096Z,8.18
2023-11-17T12:06:51.411Z,6.50
2023-11-17T12:09:21.428Z,7.00
2023-11-17T12:11:49.608Z,6.70
2023-11-17T12:14:18.239Z,7.60
2023-11-17T12:16:52.751Z,7.05
2023-11-17T12:19:19.593Z,10.13
2023-11-17T12:21:50.105Z,9.13
2023-11-17T12:24:28.264Z,8.52
2023-11-17T12:26:59.110Z,6.00
2023-11-17T12:29:34.304Z,9.23
2023-11-17T12:32:05.209Z,6.35
2023-11-17T12:34:32.207Z,7.25
2023-11-17T12:37:01.880Z,6.22
2023-11-17T12:39:40.142Z,8.48
2023-11-17T12:42:08.703Z,6.57
2023-11-17T12:44:36.556Z,8.20
2023-11-17T12:47:11.975Z,6.93
2023-11-17T12:49:55.169Z,9.00
2023-11-17T12:52:25.434Z,8.10
2023-11-17T12:55:09.535Z,9.48
2023-11-17T12:57:36.966Z,10.73
2023-11-17T13:00:14.266Z,8.95
2023-11-17T13:02:42.236Z,8.93
2023-11-17T13:05:11.672Z,12.02
2023-11-17T13:07:38.898Z,12.95
2023-11-17T13:10:06.898Z,10.82
2023-11-17T13:12:33.568Z,11.05
2023-11-17T13:15:03.503Z,11.25
2023-11-17T13:17:30.420Z,11.95
2023-11-17T13:19:57.290Z,12.80
2023-11-17T13:22:23.983Z,12.23
2023-11-17T13:25:01.343Z,9.70
2023-11-17T13:27:28.418Z,10.30
2023-11-17T13:29:55.076Z,8.88
2023-11-17T13:32:22.074Z,12.63
2023-11-17T13:34:55.668Z,13.18
2023-11-17T13:37:22.265Z,9.65
2023-11-17T13:39:49.881Z,13.25
2023-11-17T13:42:17.044Z,11.20
2023-11-17T13:44:45.223Z,12.20
2023-11-17T13:47:13.924Z,10.63
2023-11-17T13:49:42.495Z,12.32
2023-11-17T13:52:13.673Z,13.40
2023-11-17T13:54:42.305Z,13.38
2023-11-17T13:57:10.065Z,14.55
2023-11-17T13:59:37.831Z,12.55
2023-11-17T14:02:11.057Z,12.87
2023-11-17T14:04:38.555Z,10.50
2023-11-17T14:07:07.155Z,10.43
2023-11-17T14:12:05.056Z,12.30
2023-11-17T14:14:32.467Z,14.82
2023-11-17T14:17:01.247Z,10.75
2023-11-17T14:19:31.458Z,14.35
2023-11-17T14:21:58.593Z,11.15
2023-11-17T14:24:25.545Z,10.52
2023-11-17T14:26:53.560Z,12.55
2023-11-17T14:29:21.053Z,10.02
2023-11-17T14:31:51.105Z,12.43
2023-11-17T14:34:23.876Z,10.57
2023-11-17T14:36:50.976Z,10.82
2023-11-17T14:39:30.433Z,10.85
2023-11-17T14:41:57.945Z,12.35
2023-11-17T14:44:24.870Z,11.63
2023-11-17T14:46:51.649Z,11.85
2023-11-17T14:49:18.483Z,11.23
2023-11-17T14:51:45.838Z,9.93
2023-11-17T14:54:13.390Z,12.27
2023-11-17T14:56:42.453Z,12.90
2023-11-17T14:59:13.853Z,11.05
2023-11-17T15:01:43.549Z,12.25
2023-11-17T15:04:10.528Z,10.80
2023-11-17T15:06:37.171Z,11.82
2023-11-17T15:09:05.447Z,12.88
2023-11-17T15:11:32.585Z,9.65
2023-11-17T15:14:02.359Z,11.55
2023-11-17T15:16:31.782Z,9.73
2023-11-17T15:19:00.060Z,11.15
2023-11-17T15:21:34.443Z,14.55
2023-11-17T15:24:01.109Z,10.20
2023-11-17T15:26:28.615Z,12.85
2023-11-17T15:28:55.843Z,12.43
2023-11-17T15:31:29.673Z,11.75
2023-11-17T15:34:01.341Z,12.75
2023-11-17T15:36:28.600Z,13.73
2023-11-17T15:38:59.510Z,11.10
2023-11-17T15:41:26.323Z,11.63
2023-11-17T15:43:52.949Z,11.73
2023-11-17T15:46:27.448Z,12.02
2023-11-17T15:48:58.493Z,11.32
2023-11-17T15:51:26.246Z,11.23
2023-11-17T15:53:53.053Z,9.40
2023-11-17T15:56:19.960Z,11.85
2023-11-17T15:58:46.702Z,9.95
2023-11-17T16:01:13.488Z,12.18
2023-11-17T16:03:43.202Z,11.10
2023-11-17T16:06:11.464Z,10.15
2023-11-17T16:08:38.884Z,10.98
2023-11-17T16:11:10.304Z,9.13
2023-11-17T16:13:43.533Z,10.43
2023-11-17T16:16:14.451Z,10.88
2023-11-17T16:18:41.618Z,13.20
2023-11-17T16:21:08.562Z,16.85
2023-11-17T16:23:37.404Z,21.15
2023-11-17T16:26:10.626Z,19.60
2023-11-17T16:28:38.869Z,14.23
2023-11-17T16:31:12.118Z,13.35
2023-11-17T16:33:41.879Z,18.80
2023-11-17T16:36:12.784Z,14.30
2023-11-17T16:38:41.784Z,15.27
2023-11-17T16:41:08.506Z,19.40
2023-11-17T16:43:35.246Z,17.60
2023-11-17T16:46:04.297Z,14.00
2023-11-17T16:48:31.023Z,13.63
2023-11-17T16:51:01.397Z,17.45
2023-11-17T16:53:28.407Z,24.52
2023-11-17T16:55:55.200Z,10.50
2023-11-17T16:58:22.087Z,15.10
2023-11-17T17:00:51.797Z,11.65
2023-11-17T17:03:23.092Z,15.13
2023-11-17T17:05:51.138Z,12.82
2023-11-17T17:08:18.033Z,13.03
2023-11-17T17:10:45.883Z,13.65
2023-11-17T17:13:15.951Z,13.73
2023-11-17T17:15:43.416Z,14.85
2023-11-17T17:18:13.644Z,15.00
2023-11-17T17:20:41.870Z,14.57
2023-11-17T17:23:12.994Z,14.48
2023-11-17T17:25:41.658Z,13.18
2023-11-17T17:28:13.034Z,12.35
2023-11-17T17:30:41.683Z,12.15
2023-11-17T17:33:10.991Z,14.15
2023-11-17T17:35:41.383Z,14.35
2023-11-17T17:38:09.685Z,11.15
2023-11-17T17:43:08.521Z,12.93
2023-11-17T17:45:35.212Z,14.50
2023-11-17T17:48:02.106Z,12.93
2023-11-17T17:50:29.480Z,10.75
2023-11-17T17:52:58.694Z,11.38
2023-11-17T17:55:27.326Z,12.50
2023-11-17T17:57:54.966Z,14.18
2023-11-17T18:00:23.735Z,16.83
2023-11-17T18:02:55.095Z,13.35
2023-11-17T18:05:21.778Z,16.05
2023-11-17T18:07:48.650Z,12.55
2023-11-17T18:10:18.972Z,11.48
2023-11-17T18:12:47.027Z,13.27
2023-11-17T18:15:15.912Z,12.90
2023-11-17T18:17:46.140Z,18.73
2023-11-17T18:20:17.601Z,19.58
2023-11-17T18:22:45.891Z,21.17
2023-11-17T18:25:13.389Z,20.75
2023-11-17T18:27:43.999Z,18.55
2023-11-17T18:30:12.099Z,17.77
2023-11-17T18:32:41.189Z,23.67
2023-11-17T18:35:12.914Z,16.27
2023-11-17T18:37:42.342Z,20.45
2023-11-17T18:40:12.028Z,16.88
2023-11-17T18:42:42.263Z,16.88
2023-11-17T18:45:11.088Z,15.48
2023-11-17T18:47:38.157Z,14.38
2023-11-17T18:50:06.918Z,14.40
2023-11-17T18:52:35.154Z,14.30
2023-11-17T18:55:03.547Z,15.15
2023-11-17T18:57:30.197Z,15.65
2023-11-17T18:59:57.184Z,16.05
2023-11-17T19:02:24.232Z,13.07
2023-11-17T19:04:52.730Z,13.90
2023-11-17T19:07:19.609Z,14.27
2023-11-17T19:09:46.361Z,11.88
2023-11-17T19:12:13.283Z,21.13
2023-11-17T19:14:40.529Z,21.50
2023-11-17T19:17:07.332Z,15.77
2023-11-17T19:19:34.101Z,17.13
2023-11-17T19:22:00.760Z,17.30
2023-11-17T19:24:30.446Z,13.73
2023-11-17T19:27:08.455Z,14.52
2023-11-17T19:29:38.445Z,14.60
2023-11-17T19:32:08.759Z,14.25
2023-11-17T19:34:39.588Z,12.10
2023-11-17T19:37:07.084Z,14.13
2023-11-17T19:39:36.801Z,13.93
2023-11-17T19:42:06.773Z,15.02
2023-11-17T19:44:43.384Z,20.08
2023-11-17T19:47:16.701Z,19.25
2023-11-17T19:49:43.394Z,22.80
2023-11-17T19:52:10.010Z,30.33
2023-11-17T19:54:36.794Z,22.10
2023-11-17T19:57:03.600Z,19.15
2023-11-17T19:59:30.237Z,21.90
2023-11-17T20:01:56.985Z,26.92
2023-11-17T20:04:26.754Z,22.90
2023-11-17T20:06:53.755Z,22.48
2023-11-17T20:09:25.941Z,24.08
2023-11-17T20:11:56.110Z,26.25
2023-11-17T20:14:22.752Z,27.92
2023-11-17T20:16:50.794Z,31.35
2023-11-17T20:19:18.625Z,32.75
2023-11-17T20:21:45.488Z,30.77
2023-11-17T20:24:13.146Z,27.02
2023-11-17T20:26:42.246Z,31.60
2023-11-17T20:29:09.603Z,28.92
2023-11-17T20:31:38.064Z,32.28
2023-11-17T20:34:11.752Z,24.17
2023-11-17T20:36:39.117Z,24.92
2023-11-17T20:39:14.135Z,21.50
2023-11-17T20:41:40.996Z,33.00
2023-11-17T20:44:07.761Z,29.50
2023-11-17T20:46:37.700Z,36.53
2023-11-17T20:49:08.405Z,26.60
2023-11-17T20:51:35.017Z,28.48
2023-11-17T20:54:06.016Z,24.75
2023-11-17T20:56:35.440Z,29.25
2023-11-17T20:59:02.505Z,27.42
2023-11-17T21:01:30.152Z,32.45
2023-11-17T21:03:57.563Z,32.83
2023-11-17T21:06:25.212Z,25.53
2023-11-17T21:08:56.360Z,31.42
2023-11-17T21:11:22.985Z,30.15
2023-11-17T21:13:50.252Z,26.83
2023-11-17T21:16:18.122Z,24.92
2023-11-17T21:18:44.922Z,23.48
2023-11-17T21:21:14.580Z,21.15
2023-11-17T21:23:41.537Z,22.77
2023-11-17T21:26:09.417Z,27.60
2023-11-17T21:28:36.473Z,27.23
2023-11-17T21:31:03.690Z,22.80
2023-11-17T21:33:34.459Z,18.35
2023-11-17T21:36:05.270Z,21.48
2023-11-17T21:38:31.945Z,26.60
2023-11-17T21:40:59.665Z,24.00
2023-11-17T21:43:26.856Z,23.25
2023-11-17T21:45:54.726Z,21.73
2023-11-17T21:48:22.932Z,18.50
2023-11-17T21:50:50.074Z,21.33
2023-11-17T21:53:17.017Z,25.63
2023-11-17T21:55:44.367Z,24.42
2023-11-17T21:58:11.114Z,22.00
2023-11-17T22:00:37.687Z,19.83
2023-11-17T22:03:05.609Z,17.83
2023-11-17T22:05:32.365Z,16.20
2023-11-17T22:07:59.147Z,20.27
2023-11-17T22:10:27.607Z,20.70
2023-11-17T22:15:21.620Z,17.67
2023-11-17T22:17:49.218Z,20.10
2023-11-17T22:20:18.895Z,22.25
2023-11-17T22:22:49.997Z,21.63
2023-11-17T22:25:20.101Z,20.13
2023-11-17T22:27:47.636Z,21.77
2023-11-17T22:30:17.890Z,26.50
2023-11-17T22:32:46.512Z,37.60
2023-11-17T22:35:14.849Z,42.47
2023-11-17T22:37:48.948Z,41.78
2023-11-17T22:40:15.984Z,56.85
2023-11-17T22:42:44.097Z,39.22
2023-11-17T22:45:21.138Z,32.20
2023-11-17T22:47:49.021Z,30.88
2023-11-17T22:50:18.260Z,27.08
2023-11-17T22:52:46.151Z,23.38
2023-11-17T22:55:16.320Z,26.00
2023-11-17T22:57:42.981Z,26.40
2023-11-17T23:00:16.292Z,26.33
2023-11-17T23:02:45.900Z,25.33
2023-11-17T23:05:13.078Z,23.15
2023-11-17T23:07:41.148Z,20.92
2023-11-17T23:10:13.763Z,19.75
2023-11-17T23:12:40.439Z,17.38
2023-11-17T23:15:08.154Z,17.08
2023-11-17T23:17:35.031Z,21.23
2023-11-17T23:20:01.791Z,22.88
2023-11-17T23:22:28.482Z,24.15
2023-11-17T23:24:55.258Z,25.45
2023-11-17T23:27:21.988Z,23.40
2023-11-17T23:29:48.661Z,21.95
2023-11-17T23:32:15.383Z,25.42
2023-11-17T23:34:42.081Z,20.20
2023-11-17T23:37:08.781Z,22.95
2023-11-17T23:39:35.451Z,25.90
2023-11-17T23:42:06.281Z,23.83
2023-11-17T23:44:34.170Z,23.08
2023-11-17T23:47:00.985Z,22.75
2023-11-17T23:49:28.784Z,24.27
2023-11-17T23:51:55.646Z,24.63
2023-11-17T23:54:22.311Z,26.95
2023-11-17T23:56:49.591Z,23.95
2023-11-17T23:59:16.314Z,26.63
